Time;durP1;ratioP1;P1;durP2;ratioP2;P2;SDS_P1;SDS_P2;PMS_P1;PMS_P2;Temp;Humidity;BMP_temperature;BMP_pressure;BME280_temperature;BME280_humidity;BME280_pressure;Samples;Min_cycle;Max_cycle;Signal;HPM_P1;HPM_P2
2022/04/02 00:00:09;;;;;;;37.90;23.83;;;-0.30;99.90;;;;;;4169142;28;20056;-73
2022/04/02 00:02:11;;;;;;;34.17;22.05;;;-0.30;99.90;;;;;;4173665;28;21213;-73
2022/04/02 00:04:13;;;;;;;34.45;22.73;;;-0.30;99.90;;;;;;4177339;28;20973;-74
2022/04/02 00:06:15;;;;;;;40.10;24.23;;;-0.30;99.90;;;;;;4170378;28;20061;-74
2022/04/02 00:08:17;;;;;;;36.92;21.95;;;-0.30;99.90;;;;;;4173370;28;20112;-73
2022/04/02 00:10:18;;;;;;;36.88;22.95;;;-0.30;99.90;;;;;;4172183;28;20058;-74
2022/04/02 00:12:20;;;;;;;31.10;21.27;;;-0.30;99.90;;;;;;4169699;28;20180;-73
2022/04/02 00:14:22;;;;;;;35.15;21.50;;;-0.30;99.90;;;;;;4152834;28;20105;-74
2022/04/02 00:16:24;;;;;;;36.30;22.45;;;-0.30;99.90;;;;;;4171880;28;20145;-74
2022/04/02 00:18:27;;;;;;;37.40;23.98;;;-0.30;99.90;;;;;;4169546;28;20058;-75
2022/04/02 00:20:29;;;;;;;29.85;21.17;;;-0.30;99.90;;;;;;4166459;28;20113;-73
2022/04/02 00:22:31;;;;;;;37.30;21.75;;;-0.30;99.90;;;;;;4172971;28;20076;-74
2022/04/02 00:24:33;;;;;;;34.90;21.95;;;-0.30;99.90;;;;;;4176663;28;20097;-73
2022/04/02 00:26:34;;;;;;;34.60;21.60;;;-0.30;99.90;;;;;;4170060;28;20169;-74
2022/04/02 00:28:38;;;;;;;38.85;24.38;;;-0.30;99.90;;;;;;4171182;28;20119;-74
2022/04/02 00:30:40;;;;;;;37.90;23.67;;;-0.30;99.90;;;;;;4160942;28;20176;-74
2022/04/02 00:32:42;;;;;;;42.38;25.58;;;-0.30;99.90;;;;;;4176628;28;20824;-73
2022/04/02 00:34:44;;;;;;;39.22;25.40;;;-0.30;99.90;;;;;;4172209;28;20097;-73
2022/04/02 00:36:45;;;;;;;40.22;26.13;;;-0.20;99.90;;;;;;4170726;28;20097;-73
2022/04/02 00:38:48;;;;;;;43.70;26.45;;;-0.20;99.90;;;;;;4173691;28;20090;-73
2022/04/02 00:40:49;;;;;;;44.42;26.15;;;-0.20;99.90;;;;;;4180308;28;20149;-74
2022/04/02 00:42:51;;;;;;;45.95;26.90;;;-0.20;99.90;;;;;;4175286;28;20711;-75
2022/04/02 00:44:53;;;;;;;43.95;26.17;;;-0.20;99.90;;;;;;4175477;28;20108;-74
2022/04/02 00:46:55;;;;;;;46.33;27.30;;;-0.20;99.90;;;;;;4170755;28;20054;-74
2022/04/02 00:48:57;;;;;;;44.20;27.83;;;-0.20;99.90;;;;;;4175426;28;20050;-74
2022/04/02 00:51:01;;;;;;;48.50;27.95;;;-0.20;99.90;;;;;;4172769;28;20062;-74
2022/04/02 00:53:03;;;;;;;51.17;30.35;;;-0.20;99.90;;;;;;4173053;28;20057;-75
2022/04/02 00:55:05;;;;;;;51.60;28.80;;;-0.20;99.90;;;;;;4168259;28;20037;-74
2022/04/02 00:57:07;;;;;;;45.85;27.75;;;-0.20;99.90;;;;;;4172014;28;20077;-75
2022/04/02 00:59:10;;;;;;;51.22;29.23;;;-0.10;99.90;;;;;;4168464;28;20172;-74
2022/04/02 01:01:13;;;;;;;50.35;29.65;;;-0.10;99.90;;;;;;4172366;28;20085;-75
2022/04/02 01:03:16;;;;;;;56.05;30.35;;;-0.10;99.90;;;;;;4172187;28;20062;-74
2022/04/02 01:05:20;;;;;;;51.00;31.20;;;-0.10;99.90;;;;;;4170716;28;20057;-74
2022/04/02 01:07:22;;;;;;;57.10;30.73;;;-0.10;99.90;;;;;;4169594;28;20977;-72
2022/04/02 01:09:24;;;;;;;56.60;32.08;;;-0.10;99.90;;;;;;4168165;28;20097;-73
2022/04/02 01:11:40;;;;;;;54.88;30.92;;;-0.20;99.90;;;;;;4169568;28;20077;-73
2022/04/02 01:13:42;;;;;;;55.92;32.63;;;-0.20;99.90;;;;;;4173017;28;20776;-72
2022/04/02 01:15:43;;;;;;;56.10;32.42;;;-0.20;99.90;;;;;;4172582;28;20215;-72
2022/04/02 01:17:46;;;;;;;61.40;33.65;;;-0.20;99.90;;;;;;4170250;28;20904;-73
2022/04/02 01:19:49;;;;;;;54.97;33.22;;;-0.20;99.90;;;;;;4146360;28;20098;-71
2022/04/02 01:21:51;;;;;;;51.58;30.58;;;-0.10;99.90;;;;;;4169945;28;20057;-72
2022/04/02 01:23:52;;;;;;;56.75;31.90;;;-0.10;99.90;;;;;;4172157;28;20058;-72
2022/04/02 01:25:56;;;;;;;55.08;32.90;;;-0.10;99.90;;;;;;4170268;28;20165;-73
2022/04/02 01:28:00;;;;;;;55.53;32.50;;;-0.10;99.90;;;;;;4167981;28;20069;-72
2022/04/02 01:30:03;;;;;;;52.55;30.58;;;-0.20;99.90;;;;;;4167269;28;20172;-73
2022/04/02 01:32:05;;;;;;;56.85;31.33;;;-0.20;99.90;;;;;;4166148;28;20161;-71
2022/04/02 01:34:07;;;;;;;57.03;31.60;;;-0.20;99.90;;;;;;4166426;28;20141;-73
2022/04/02 01:36:09;;;;;;;58.92;31.73;;;-0.20;99.90;;;;;;4166369;28;20658;-73
2022/04/02 01:38:11;;;;;;;53.88;32.33;;;-0.10;99.90;;;;;;4166219;28;20857;-72
2022/04/02 01:40:12;;;;;;;57.67;34.08;;;-0.10;99.90;;;;;;4166716;28;20089;-73
2022/04/02 01:42:17;;;;;;;53.13;31.38;;;-0.10;99.90;;;;;;4169773;28;20041;-72
2022/04/02 01:44:19;;;;;;;53.50;31.58;;;-0.10;99.90;;;;;;4163198;28;20057;-72
2022/04/02 01:46:21;;;;;;;64.40;31.33;;;-0.10;99.90;;;;;;4184066;23;20042;-75
2022/04/02 01:48:24;;;;;;;53.72;30.17;;;-0.10;99.90;;;;;;4159754;28;20748;-75
2022/04/02 01:50:25;;;;;;;52.15;32.22;;;-0.10;99.90;;;;;;4161485;28;20750;-77
2022/04/02 01:52:27;;;;;;;58.45;30.60;;;-0.20;99.90;;;;;;4164263;28;20104;-76
2022/04/02 01:54:29;;;;;;;52.28;30.45;;;-0.20;99.90;;;;;;4170992;28;20872;-76
2022/04/02 01:56:31;;;;;;;50.65;30.77;;;-0.20;99.90;;;;;;4180524;28;21022;-76
2022/04/02 01:58:32;;;;;;;49.35;30.67;;;-0.10;99.90;;;;;;4190270;28;20096;-77
2022/04/02 02:00:34;;;;;;;61.00;31.42;;;-0.10;99.90;;;;;;4168633;28;20058;-76
2022/04/02 02:02:36;;;;;;;52.47;29.63;;;-0.10;99.90;;;;;;4191552;28;20052;-76
2022/04/02 02:04:38;;;;;;;48.30;28.55;;;-0.10;99.90;;;;;;4188147;28;20057;-76
2022/04/02 02:06:40;;;;;;;49.40;29.25;;;-0.20;99.90;;;;;;4179191;28;20053;-76
2022/04/02 02:08:42;;;;;;;55.20;30.27;;;-0.20;99.90;;;;;;4179190;28;20057;-76
2022/04/02 02:10:43;;;;;;;49.85;30.17;;;-0.20;99.90;;;;;;4177161;28;20050;-77
2022/04/02 02:12:46;;;;;;;48.53;29.20;;;-0.20;99.90;;;;;;4176610;28;21909;-76
2022/04/02 02:14:48;;;;;;;54.05;30.42;;;-0.20;99.90;;;;;;4185555;28;20116;-76
2022/04/02 02:16:50;;;;;;;50.90;29.83;;;-0.20;99.90;;;;;;4183173;28;20049;-76
2022/04/02 02:18:52;;;;;;;51.42;29.25;;;-0.20;99.90;;;;;;4178507;28;20058;-76
2022/04/02 02:20:53;;;;;;;53.70;30.92;;;-0.30;99.90;;;;;;4165322;28;20058;-76
2022/04/02 02:22:55;;;;;;;49.17;29.95;;;-0.20;99.90;;;;;;4163459;28;20176;-77
2022/04/02 02:24:57;;;;;;;45.80;27.17;;;-0.20;99.90;;;;;;4183435;28;20184;-77
2022/04/02 02:26:58;;;;;;;51.25;31.80;;;-0.20;99.90;;;;;;4177495;28;20089;-76
2022/04/02 02:29:06;;;;;;;46.80;28.23;;;-0.20;99.90;;;;;;4163534;28;20065;-76
2022/04/02 02:31:08;;;;;;;49.00;29.00;;;-0.20;99.90;;;;;;4181525;28;20192;-76
2022/04/02 02:37:50;;;;;;;45.40;27.75;;;-0.20;99.90;;;;;;4177990;28;20054;-76
2022/04/02 02:39:52;;;;;;;43.97;27.23;;;-0.20;99.90;;;;;;4176300;28;20758;-76
2022/04/02 02:41:54;;;;;;;45.55;27.10;;;-0.20;99.90;;;;;;4180772;28;20049;-76
2022/04/02 02:43:56;;;;;;;40.15;27.02;;;-0.20;99.90;;;;;;4172242;28;20808;-77
2022/04/02 02:45:57;;;;;;;45.10;27.70;;;-0.20;99.90;;;;;;4164196;28;20092;-76
2022/04/02 02:48:01;;;;;;;44.08;27.77;;;-0.20;99.90;;;;;;4177115;28;20064;-76
2022/04/02 02:50:07;;;;;;;42.13;26.60;;;-0.20;99.90;;;;;;4163955;28;20058;-76
2022/04/02 02:52:09;;;;;;;42.38;26.10;;;-0.20;99.90;;;;;;4177647;28;20053;-76
2022/04/02 02:54:11;;;;;;;38.05;24.38;;;-0.20;99.90;;;;;;4183574;28;20102;-76
2022/04/02 02:56:13;;;;;;;42.00;23.95;;;-0.20;99.90;;;;;;4186037;28;20105;-76
2022/04/02 02:58:14;;;;;;;42.63;25.08;;;-0.20;99.90;;;;;;4181275;28;20873;-76
2022/04/02 03:00:19;;;;;;;39.47;23.92;;;-0.20;99.90;;;;;;4181701;28;20135;-76
2022/04/02 03:02:21;;;;;;;40.15;24.73;;;-0.20;99.90;;;;;;4168941;28;20165;-76
2022/04/02 03:04:23;;;;;;;37.33;24.25;;;-0.20;99.90;;;;;;4172713;28;20054;-77
2022/04/02 03:06:25;;;;;;;37.45;24.77;;;-0.20;99.90;;;;;;4174151;28;20061;-77
2022/04/02 03:08:27;;;;;;;35.15;23.80;;;-0.20;99.90;;;;;;4175974;28;20656;-76
2022/04/02 03:10:29;;;;;;;41.28;26.00;;;-0.20;99.90;;;;;;4175200;28;20057;-76
2022/04/02 03:12:31;;;;;;;37.22;22.98;;;-0.20;99.90;;;;;;4173645;28;20066;-77
2022/04/02 03:14:32;;;;;;;35.50;23.23;;;-0.20;99.90;;;;;;4186138;28;20092;-76
2022/04/02 03:16:34;;;;;;;37.53;22.98;;;-0.10;99.90;;;;;;4170592;28;20157;-76
2022/04/02 03:18:36;;;;;;;34.55;22.13;;;-0.10;99.90;;;;;;4173949;28;20832;-76
2022/04/02 03:20:38;;;;;;;35.15;21.58;;;-0.10;99.90;;;;;;4176024;28;20092;-76
2022/04/02 03:22:40;;;;;;;32.22;21.08;;;-0.10;99.90;;;;;;4172244;28;20104;-76
2022/04/02 03:24:42;;;;;;;29.35;20.85;;;-0.10;99.90;;;;;;4176666;28;20065;-76
2022/04/02 03:26:44;;;;;;;40.17;21.90;;;-0.20;99.90;;;;;;4170077;28;20058;-76
2022/04/02 03:28:46;;;;;;;31.92;20.90;;;-0.20;99.90;;;;;;4174799;28;20089;-77
2022/04/02 03:30:48;;;;;;;32.70;21.27;;;-0.30;99.90;;;;;;4166387;28;20104;-76
2022/04/02 03:32:51;;;;;;;27.40;20.90;;;-0.30;99.90;;;;;;4179274;28;20230;-76
2022/04/02 03:34:53;;;;;;;36.67;21.48;;;-0.30;99.90;;;;;;4168322;28;20050;-76
2022/04/02 03:36:55;;;;;;;40.88;23.60;;;-0.30;99.90;;;;;;4198085;28;20060;-76
2022/04/02 03:38:56;;;;;;;30.20;20.40;;;-0.30;99.90;;;;;;4174619;28;20069;-76
2022/04/02 03:40:58;;;;;;;30.85;20.13;;;-0.30;99.90;;;;;;4162259;28;20097;-76
2022/04/02 03:43:00;;;;;;;33.95;20.05;;;-0.30;99.90;;;;;;4176509;28;20064;-76
2022/04/02 03:45:04;;;;;;;39.53;21.02;;;-0.30;99.90;;;;;;4172794;28;20164;-77
2022/04/02 03:47:09;;;;;;;32.10;21.05;;;-0.30;99.90;;;;;;4193875;28;20048;-76
2022/04/02 03:49:13;;;;;;;33.33;19.98;;;-0.30;99.90;;;;;;4193189;28;20108;-77
2022/04/02 03:51:15;;;;;;;31.83;19.83;;;-0.40;99.90;;;;;;4176570;28;20058;-77
2022/04/02 03:53:20;;;;;;;34.10;19.88;;;-0.30;99.90;;;;;;4180890;28;20057;-78
2022/04/02 03:55:22;;;;;;;27.85;18.30;;;-0.30;99.90;;;;;;4176802;28;20050;-77
2022/04/02 03:57:24;;;;;;;35.92;18.65;;;-0.30;99.90;;;;;;4183834;28;20097;-77
2022/04/02 03:59:26;;;;;;;27.13;17.88;;;-0.20;99.90;;;;;;4179318;28;20161;-77
2022/04/02 04:01:27;;;;;;;30.48;16.92;;;-0.30;99.90;;;;;;4176949;28;20176;-76
2022/04/02 04:03:29;;;;;;;32.40;18.02;;;-0.30;99.90;;;;;;4167213;28;20061;-77
2022/04/02 04:05:31;;;;;;;22.73;16.73;;;-0.30;99.90;;;;;;4188080;28;20123;-76
2022/04/02 04:07:33;;;;;;;26.75;17.45;;;-0.30;99.90;;;;;;4193024;28;20080;-78
2022/04/02 04:09:36;;;;;;;25.83;15.88;;;-0.20;99.90;;;;;;4183920;28;20123;-78
2022/04/02 04:11:38;;;;;;;30.35;16.60;;;-0.30;99.90;;;;;;4184744;28;20112;-78
2022/04/02 04:13:40;;;;;;;23.23;16.10;;;-0.30;99.90;;;;;;4167731;28;20808;-77
2022/04/02 04:15:42;;;;;;;26.52;16.20;;;-0.40;99.90;;;;;;4183198;28;20088;-77
2022/04/02 04:17:44;;;;;;;24.05;15.13;;;-0.40;99.90;;;;;;4194706;28;20047;-76
2022/04/02 04:19:47;;;;;;;24.67;15.60;;;-0.30;99.90;;;;;;4197411;28;20061;-77
2022/04/02 04:21:49;;;;;;;21.75;15.40;;;-0.30;99.90;;;;;;4198534;28;20046;-77
2022/04/02 04:23:51;;;;;;;24.92;15.20;;;-0.40;99.90;;;;;;4174953;28;20120;-77
2022/04/02 04:25:52;;;;;;;29.13;15.68;;;-0.40;99.90;;;;;;4185244;28;20156;-77
2022/04/02 04:27:54;;;;;;;25.42;15.82;;;-0.40;99.90;;;;;;4188901;28;20828;-77
2022/04/02 04:29:56;;;;;;;26.45;15.43;;;-0.40;99.90;;;;;;4192281;28;20053;-77
2022/04/02 04:31:58;;;;;;;21.27;14.30;;;-0.40;99.90;;;;;;4193327;28;20113;-75
2022/04/02 04:34:00;;;;;;;21.13;13.75;;;-0.50;99.90;;;;;;4190667;28;20053;-78
2022/04/02 04:36:02;;;;;;;24.13;14.18;;;-0.60;99.90;;;;;;4174653;28;20240;-77
2022/04/02 04:38:04;;;;;;;31.55;16.10;;;-0.50;99.90;;;;;;4179838;28;20667;-76
2022/04/02 04:40:06;;;;;;;29.42;17.17;;;-0.60;99.90;;;;;;4174344;28;20157;-77
2022/04/02 04:42:08;;;;;;;36.38;16.20;;;-0.50;99.90;;;;;;4178503;28;20091;-77
2022/04/02 04:44:10;;;;;;;24.40;15.85;;;-0.50;99.90;;;;;;4174842;28;20061;-78
2022/04/02 04:46:12;;;;;;;20.83;15.20;;;-0.50;99.90;;;;;;4162339;28;20065;-77
2022/04/02 04:48:14;;;;;;;24.65;16.30;;;-0.50;99.90;;;;;;4167188;28;20049;-78
2022/04/02 04:50:16;;;;;;;31.80;17.70;;;-0.40;99.90;;;;;;4176086;28;20065;-78
2022/04/02 04:52:17;;;;;;;33.00;17.23;;;-0.50;99.90;;;;;;4164278;28;20152;-78
2022/04/02 04:54:19;;;;;;;24.65;16.08;;;-0.40;99.90;;;;;;4180180;28;20101;-78
2022/04/02 04:56:21;;;;;;;27.17;17.30;;;-0.40;99.90;;;;;;4184559;28;20788;-77
2022/04/02 04:58:23;;;;;;;25.08;16.00;;;-0.40;99.90;;;;;;4184801;28;20066;-77
2022/04/02 05:00:24;;;;;;;20.10;14.70;;;-0.40;99.90;;;;;;4172673;28;20062;-78
2022/04/02 05:02:26;;;;;;;30.95;17.38;;;-0.50;99.90;;;;;;4181910;28;20596;-77
2022/04/02 05:04:28;;;;;;;23.92;16.50;;;-0.50;99.90;;;;;;4170645;28;20065;-78
2022/04/02 05:06:30;;;;;;;23.63;16.95;;;-0.50;99.90;;;;;;4179182;28;20058;-77
2022/04/02 05:08:32;;;;;;;29.40;16.63;;;-0.50;99.90;;;;;;4186570;28;20065;-76
2022/04/02 05:10:35;;;;;;;26.95;18.00;;;-0.50;99.90;;;;;;4185717;28;20050;-79
2022/04/02 05:12:38;;;;;;;26.90;17.90;;;-0.60;99.90;;;;;;4169313;28;20080;-78
2022/04/02 05:14:40;;;;;;;30.58;18.27;;;-0.60;99.90;;;;;;4168506;28;20069;-77
2022/04/02 05:16:45;;;;;;;28.45;17.75;;;-0.60;99.90;;;;;;4180254;28;20062;-77
2022/04/02 05:18:47;;;;;;;26.80;17.65;;;-0.60;99.90;;;;;;4182717;28;20083;-76
2022/04/02 05:20:49;;;;;;;31.40;18.42;;;-0.60;99.90;;;;;;4177653;28;20180;-78
2022/04/02 05:22:50;;;;;;;25.42;16.75;;;-0.60;99.90;;;;;;4177601;28;20691;-77
2022/04/02 05:24:52;;;;;;;23.92;17.85;;;-0.60;99.90;;;;;;4176893;28;20078;-77
2022/04/02 05:26:55;;;;;;;29.08;18.58;;;-0.60;99.90;;;;;;4176703;28;20057;-77
2022/04/02 05:28:59;;;;;;;25.10;17.45;;;-0.60;99.90;;;;;;4168981;28;20936;-77
2022/04/02 05:31:01;;;;;;;24.63;18.17;;;-0.60;99.90;;;;;;4178006;28;20862;-77
2022/04/02 05:33:03;;;;;;;29.35;17.88;;;-0.60;99.90;;;;;;4175520;28;20061;-77
2022/04/02 05:35:24;;;;;;;24.20;16.65;;;-0.60;99.90;;;;;;4175168;28;20057;-78
2022/04/02 05:37:31;;;;;;;23.83;16.60;;;-0.70;99.90;;;;;;4171061;28;20046;-77
2022/04/02 05:39:33;;;;;;;31.33;17.77;;;-0.70;99.90;;;;;;4175633;28;20943;-78
2022/04/02 05:41:37;;;;;;;27.83;17.13;;;-0.70;99.90;;;;;;4176950;28;20690;-77
2022/04/02 05:43:38;;;;;;;26.25;16.90;;;-0.70;99.90;;;;;;4180270;28;20084;-78
2022/04/02 05:45:40;;;;;;;28.88;17.90;;;-0.70;99.90;;;;;;4178788;28;20164;-78
2022/04/02 05:47:44;;;;;;;29.15;17.55;;;-0.60;99.90;;;;;;4166373;28;20054;-77
2022/04/02 05:49:51;;;;;;;25.52;18.08;;;-0.60;99.90;;;;;;4185884;28;20060;-79
2022/04/02 05:51:52;;;;;;;30.55;18.33;;;-0.60;99.90;;;;;;4176967;28;20062;-75
2022/04/02 05:53:54;;;;;;;25.52;17.80;;;-0.60;99.90;;;;;;4180605;28;20099;-77
2022/04/02 05:55:56;;;;;;;27.58;17.90;;;-0.60;99.90;;;;;;4178729;28;20057;-77
2022/04/02 05:57:59;;;;;;;30.60;18.05;;;-0.60;99.90;;;;;;4188605;28;20079;-77
2022/04/02 06:00:03;;;;;;;23.95;16.70;;;-0.60;99.90;;;;;;4175791;28;20050;-76
2022/04/02 06:02:05;;;;;;;28.20;18.35;;;-0.60;99.90;;;;;;4188419;28;20050;-76
2022/04/02 06:04:07;;;;;;;23.05;15.95;;;-0.60;99.90;;;;;;4191262;28;20061;-77
2022/04/02 06:06:09;;;;;;;25.95;17.17;;;-0.50;99.90;;;;;;4180607;28;20057;-77
2022/04/02 06:08:11;;;;;;;23.52;16.38;;;-0.60;99.90;;;;;;4182928;28;20061;-76
2022/04/02 06:10:13;;;;;;;26.80;17.27;;;-0.60;99.90;;;;;;4177486;28;20057;-75
2022/04/02 06:12:15;;;;;;;20.92;15.73;;;-0.60;99.90;;;;;;4178859;28;20054;-75
2022/04/02 06:14:17;;;;;;;24.13;16.90;;;-0.60;99.90;;;;;;4180523;28;20061;-76
2022/04/02 06:16:19;;;;;;;25.45;17.25;;;-0.60;99.90;;;;;;4179668;28;20053;-75
2022/04/02 06:18:21;;;;;;;24.50;16.50;;;-0.50;99.90;;;;;;4179308;28;20740;-76
2022/04/02 06:20:23;;;;;;;24.67;18.17;;;-0.50;99.90;;;;;;4180415;28;20157;-74
2022/04/02 06:22:25;;;;;;;26.90;17.15;;;-0.50;99.90;;;;;;4176978;28;20083;-75
2022/04/02 06:24:26;;;;;;;24.38;15.88;;;-0.40;99.90;;;;;;4188597;28;20049;-74
2022/04/02 06:26:28;;;;;;;18.98;15.15;;;-0.50;99.90;;;;;;4195713;28;20072;-75
2022/04/02 06:28:30;;;;;;;24.27;15.18;;;-0.60;99.90;;;;;;4185092;28;20061;-75
2022/04/02 06:30:32;;;;;;;22.63;16.02;;;-0.60;99.90;;;;;;4178949;28;20093;-74
2022/04/02 06:32:34;;;;;;;22.30;15.45;;;-0.50;99.90;;;;;;4160604;28;20125;-74
2022/04/02 06:34:35;;;;;;;20.83;16.08;;;-0.60;99.90;;;;;;4180756;28;20047;-74
2022/04/02 06:36:37;;;;;;;21.48;15.50;;;-0.50;99.90;;;;;;4163541;28;20185;-73
2022/04/02 06:38:40;;;;;;;19.42;14.70;;;-0.50;99.90;;;;;;4160407;28;20060;-75
2022/04/02 06:40:42;;;;;;;24.00;15.80;;;-0.50;99.90;;;;;;4180904;28;20057;-74
2022/04/02 06:42:44;;;;;;;23.30;15.93;;;-0.50;99.90;;;;;;4170797;28;20901;-74
2022/04/02 06:44:45;;;;;;;22.50;15.43;;;-0.50;99.90;;;;;;4181577;28;20879;-73
2022/04/02 06:46:47;;;;;;;22.58;16.33;;;-0.50;99.90;;;;;;4179528;28;20092;-74
2022/04/02 06:48:49;;;;;;;21.05;16.00;;;-0.50;99.90;;;;;;4178408;28;20175;-74
2022/04/02 06:50:52;;;;;;;25.33;15.55;;;-0.40;99.90;;;;;;4178349;28;20065;-74
2022/04/02 06:52:53;;;;;;;23.10;15.50;;;-0.40;99.90;;;;;;4179007;28;20107;-74
2022/04/02 06:54:56;;;;;;;21.27;14.50;;;-0.50;99.90;;;;;;4177270;28;20099;-74
2022/04/02 06:56:58;;;;;;;20.85;15.95;;;-0.40;99.90;;;;;;4178902;28;20058;-74
2022/04/02 06:59:00;;;;;;;23.80;15.98;;;-0.40;99.90;;;;;;4159526;28;20126;-74
2022/04/02 07:01:02;;;;;;;20.33;15.23;;;-0.30;99.90;;;;;;4178577;28;20065;-73
2022/04/02 07:03:05;;;;;;;22.98;15.02;;;-0.30;99.90;;;;;;4178458;28;20103;-74
2022/04/02 07:05:07;;;;;;;21.10;15.75;;;-0.30;99.90;;;;;;4179959;28;20853;-74
2022/04/02 07:07:09;;;;;;;20.80;13.85;;;-0.40;99.90;;;;;;4161274;28;20069;-75
2022/04/02 07:09:14;;;;;;;21.42;14.20;;;-0.40;99.90;;;;;;4177621;28;20192;-74
2022/04/02 07:11:16;;;;;;;17.70;12.88;;;-0.40;99.90;;;;;;4159040;28;20169;-75
2022/04/02 07:13:18;;;;;;;18.85;12.90;;;-0.40;99.90;;;;;;4180041;28;20167;-75
2022/04/02 07:15:20;;;;;;;20.88;12.93;;;-0.40;99.90;;;;;;4160415;28;20841;-76
2022/04/02 07:17:23;;;;;;;18.20;13.70;;;-0.40;99.90;;;;;;4161639;28;20175;-75
2022/04/02 07:19:25;;;;;;;18.98;13.80;;;-0.40;99.90;;;;;;4177787;28;20799;-74
2022/04/02 07:21:28;;;;;;;17.92;13.45;;;-0.30;99.90;;;;;;4159785;28;20176;-74
2022/04/02 07:23:31;;;;;;;17.65;13.23;;;-0.30;99.90;;;;;;4178840;28;20108;-74
2022/04/02 07:25:38;;;;;;;20.50;14.48;;;-0.30;99.90;;;;;;4162280;28;20058;-74
2022/04/02 07:27:41;;;;;;;18.80;13.60;;;-0.40;99.90;;;;;;4177871;28;20049;-74
2022/04/02 07:29:43;;;;;;;19.35;14.23;;;-0.40;99.90;;;;;;4183877;28;21225;-73
2022/04/02 07:31:45;;;;;;;20.13;14.02;;;-0.30;99.90;;;;;;4180066;28;20108;-73
2022/04/02 07:33:54;;;;;;;18.65;14.48;;;-0.30;99.90;;;;;;4169207;28;20096;-74
2022/04/02 07:36:04;;;;;;;18.80;13.48;;;-0.40;99.90;;;;;;4172453;28;20062;-73
2022/04/02 07:38:33;;;;;;;17.60;13.05;;;-0.30;99.90;;;;;;4173327;28;20064;-74
2022/04/02 07:40:49;;;;;;;19.58;14.30;;;-0.30;99.90;;;;;;4175802;28;20088;-74
2022/04/02 07:43:12;;;;;;;26.77;14.82;;;-0.20;99.90;;;;;;4174130;28;20142;-73
2022/04/02 07:45:20;;;;;;;21.83;12.90;;;-0.20;99.90;;;;;;4175775;28;20876;-73
2022/04/02 07:47:30;;;;;;;21.98;14.18;;;-0.10;99.90;;;;;;4193000;23;20053;-73
2022/04/02 07:49:34;;;;;;;18.90;12.80;;;-0.10;99.90;;;;;;4168217;28;20081;-72
2022/04/02 07:51:38;;;;;;;16.77;12.57;;;-0.20;99.90;;;;;;4170746;28;20169;-72
2022/04/02 07:53:48;;;;;;;17.98;12.90;;;-0.20;99.90;;;;;;4164772;28;20065;-71
2022/04/02 07:55:57;;;;;;;19.55;12.88;;;-0.30;99.90;;;;;;4160303;28;20896;-72
2022/04/02 07:58:02;;;;;;;16.75;13.55;;;-0.30;99.90;;;;;;4166869;28;20914;-73
2022/04/02 08:00:06;;;;;;;27.85;14.45;;;-0.30;99.90;;;;;;4168737;28;20066;-73
2022/04/02 08:04:30;;;;;;;16.95;13.45;;;-0.30;99.90;;;;;;4161736;28;20373;-71
2022/04/02 08:06:34;;;;;;;18.30;12.18;;;-0.40;99.90;;;;;;4144548;28;20066;-74
2022/04/02 08:08:37;;;;;;;18.38;12.93;;;-0.40;99.90;;;;;;4156208;28;20109;-72
2022/04/02 08:10:45;;;;;;;17.58;12.90;;;-0.30;99.90;;;;;;4154911;28;20058;-73
2022/04/02 08:12:47;;;;;;;19.05;13.68;;;-0.30;99.90;;;;;;4168538;28;20869;-72
2022/04/02 08:14:50;;;;;;;21.17;12.75;;;-0.30;99.90;;;;;;4164155;28;20101;-72
2022/04/02 08:16:52;;;;;;;16.98;12.82;;;-0.30;99.90;;;;;;4162257;28;20178;-72
2022/04/02 08:18:56;;;;;;;17.70;12.73;;;-0.30;99.90;;;;;;4167705;28;20136;-74
2022/04/02 08:20:58;;;;;;;13.48;11.63;;;-0.30;99.90;;;;;;4163884;28;20089;-73
2022/04/02 08:23:01;;;;;;;14.43;11.75;;;-0.40;99.90;;;;;;4170036;28;20061;-73
2022/04/02 08:25:04;;;;;;;15.27;11.73;;;-0.50;99.90;;;;;;4164815;28;20090;-72
2022/04/02 08:27:24;;;;;;;15.95;12.23;;;-0.50;99.90;;;;;;4158980;28;20059;-73
2022/04/02 08:29:44;;;;;;;16.92;12.88;;;-0.40;99.90;;;;;;4174801;28;20139;-72
2022/04/02 08:31:57;;;;;;;17.85;12.35;;;-0.40;99.90;;;;;;4157785;28;20104;-73
2022/04/02 08:34:15;;;;;;;14.88;11.95;;;-0.50;99.90;;;;;;4155767;28;20140;-74
2022/04/02 08:36:33;;;;;;;19.58;11.50;;;-0.40;99.90;;;;;;4165215;28;20167;-73
2022/04/02 08:39:18;;;;;;;16.73;12.07;;;-0.40;99.90;;;;;;4166914;28;20085;-72
2022/04/02 08:41:44;;;;;;;18.05;13.93;;;-0.40;99.90;;;;;;4164858;28;20077;-72
2022/04/02 08:44:23;;;;;;;15.63;12.82;;;-0.40;99.90;;;;;;4164370;28;20785;-72
2022/04/02 08:46:35;;;;;;;19.08;13.10;;;-0.30;99.90;;;;;;4167772;28;21057;-73
2022/04/02 08:48:58;;;;;;;19.88;13.02;;;-0.30;99.90;;;;;;4146637;28;20656;-74
2022/04/02 08:51:15;;;;;;;17.67;12.88;;;-0.30;99.90;;;;;;4158257;28;20864;-74
2022/04/02 08:53:47;;;;;;;15.85;12.65;;;-0.40;99.90;;;;;;4155378;28;20065;-73
2022/04/02 08:56:02;;;;;;;21.40;13.27;;;-0.50;99.90;;;;;;4156704;28;21007;-73
2022/04/02 08:58:25;;;;;;;18.63;13.38;;;-0.50;99.90;;;;;;4160552;28;20069;-74
2022/04/02 09:00:27;;;;;;;22.02;15.02;;;-0.50;99.90;;;;;;4160945;28;20128;-72
2022/04/02 09:02:59;;;;;;;19.55;13.73;;;-0.50;99.90;;;;;;4163022;28;20058;-73
2022/04/02 09:05:19;;;;;;;19.92;14.95;;;-0.40;99.90;;;;;;4167659;28;20053;-73
2022/04/02 09:07:41;;;;;;;18.33;13.75;;;-0.50;99.90;;;;;;4166931;28;20065;-74
2022/04/02 09:10:08;;;;;;;21.85;14.65;;;-0.60;99.90;;;;;;4179572;28;20180;-74
2022/04/02 09:12:45;;;;;;;19.42;13.98;;;-0.40;99.90;;;;;;4165074;28;20108;-74
2022/04/02 09:15:12;;;;;;;25.45;15.52;;;-0.40;99.90;;;;;;4174114;28;20058;-73
2022/04/02 09:17:42;;;;;;;24.35;15.63;;;-0.40;99.90;;;;;;4166294;28;20229;-74
2022/04/02 09:20:08;;;;;;;20.57;14.33;;;-0.50;99.90;;;;;;4162070;28;20769;-73
2022/04/02 09:22:47;;;;;;;22.35;14.35;;;-0.50;99.90;;;;;;4168347;28;20448;-74
2022/04/02 09:25:20;;;;;;;23.20;15.80;;;-0.40;99.90;;;;;;4167784;28;20100;-75
2022/04/02 09:27:44;;;;;;;23.65;14.05;;;-0.30;99.90;;;;;;4167136;28;20096;-74
2022/04/02 09:29:59;;;;;;;22.88;15.95;;;-0.40;99.90;;;;;;4165744;28;20062;-77
2022/04/02 09:32:32;;;;;;;24.95;15.85;;;-0.40;99.90;;;;;;4164342;28;20863;-73
2022/04/02 09:35:13;;;;;;;23.63;16.95;;;-0.40;99.90;;;;;;4158712;28;20128;-73
2022/04/02 09:37:32;;;;;;;26.08;16.55;;;-0.40;99.90;;;;;;4160558;28;20169;-74
2022/04/02 09:40:03;;;;;;;20.75;14.48;;;-0.50;99.90;;;;;;4152047;28;20065;-73
2022/04/02 09:42:22;;;;;;;23.40;16.92;;;-0.50;99.90;;;;;;4164778;28;20054;-75
2022/04/02 09:44:34;;;;;;;22.07;16.43;;;-0.50;99.90;;;;;;4165126;28;20089;-72
2022/04/02 09:46:57;;;;;;;23.80;15.02;;;-0.50;99.90;;;;;;4166708;28;20137;-73
2022/04/02 09:49:06;;;;;;;26.65;16.67;;;-0.60;99.90;;;;;;4165039;28;20156;-75
2022/04/02 09:51:11;;;;;;;24.17;16.42;;;-0.60;99.90;;;;;;4165122;28;20104;-73
2022/04/02 09:53:24;;;;;;;25.10;16.50;;;-0.50;99.90;;;;;;4170431;28;20180;-73
2022/04/02 09:55:51;;;;;;;23.63;16.23;;;-0.60;99.90;;;;;;4162569;28;20050;-73
2022/04/02 09:58:12;;;;;;;25.25;16.30;;;-0.60;99.90;;;;;;4164316;28;20108;-73
2022/04/02 10:00:18;;;;;;;29.67;17.08;;;-0.60;99.90;;;;;;4164280;28;20631;-73
2022/04/02 10:03:04;;;;;;;25.38;15.48;;;-0.50;99.90;;;;;;4167181;28;20211;-74
2022/04/02 10:05:07;;;;;;;25.77;16.95;;;-0.50;99.90;;;;;;4136812;28;20065;-74
2022/04/02 10:07:43;;;;;;;25.20;16.70;;;-0.50;99.90;;;;;;4146622;28;20843;-74
2022/04/02 10:09:49;;;;;;;27.85;15.55;;;-0.50;99.90;;;;;;4151869;28;20062;-75
2022/04/02 10:11:53;;;;;;;25.45;16.52;;;-0.60;99.90;;;;;;4166541;28;20057;-74
2022/04/02 10:14:00;;;;;;;27.55;16.15;;;-0.60;99.90;;;;;;4149361;28;20062;-73
2022/04/02 10:16:05;;;;;;;27.15;15.77;;;-0.70;99.90;;;;;;4151263;28;20786;-74
2022/04/02 10:18:11;;;;;;;21.58;15.52;;;-0.70;99.90;;;;;;4166281;28;20044;-75
2022/04/02 10:20:14;;;;;;;22.55;16.58;;;-0.50;99.90;;;;;;4166379;28;20062;-75
2022/04/02 10:22:25;;;;;;;25.92;17.17;;;-0.40;99.90;;;;;;4171201;28;20105;-74
2022/04/02 10:24:31;;;;;;;22.13;15.40;;;-0.40;99.90;;;;;;4149082;28;21208;-72
2022/04/02 10:26:40;;;;;;;22.75;15.65;;;-0.50;99.90;;;;;;4162107;28;20089;-73
2022/04/02 10:28:51;;;;;;;23.10;15.35;;;-0.60;99.90;;;;;;4175561;28;20057;-75
2022/04/02 10:30:56;;;;;;;23.05;15.13;;;-0.60;99.90;;;;;;4175431;28;20213;-74
2022/04/02 10:35:25;;;;;;;23.27;15.73;;;-0.70;99.90;;;;;;4173099;28;20841;-73
2022/04/02 10:37:44;;;;;;;23.42;16.30;;;-0.70;99.90;;;;;;4166328;28;20871;-72
2022/04/02 10:39:57;;;;;;;26.05;15.77;;;-0.60;99.90;;;;;;4151027;28;20180;-74
2022/04/02 10:42:07;;;;;;;22.73;16.27;;;-0.60;99.90;;;;;;4171427;28;20054;-73
2022/04/02 10:44:19;;;;;;;28.52;18.88;;;-0.50;99.90;;;;;;4159981;28;20912;-74
2022/04/02 10:46:24;;;;;;;26.13;17.60;;;-0.40;99.90;;;;;;4178529;28;20061;-73
2022/04/02 10:48:51;;;;;;;26.58;18.17;;;-0.30;99.90;;;;;;4177540;28;20754;-74